Makaweli, Hawaii
Current Conditions -  °F | °C
As of 5:56 PM on Tuesday 27 Jan 2015 (Local Time) from PHBK Reporting Station
Scattered Clouds Scattered Clouds  
Wind Chill: 74°   Ceiling: Unl
Heat Index: 74°   Visibility: 10mi
Dew Point: 61°   Wind: 5mph
Humidity: 64%   Direction: 200°SSW
Pressure: 29.91"   Gusts: NA
Location:  21.9°N, 159.65°W
Report Text: PHBK 280356Z AUTO 20004KT 10SM SCT050 23/16 A2991 RMK AO2 SLP129 T02330161 $
Loading
Personal Weather Stations






























Interactive Weather Map New forecast layout! Learn more

10-Day Weather Forecast

Advertisements
Track Severe Weather on mobile